createdAt,value
2022-10-03T00:00:11.377Z,17989.22
2022-10-03T00:03:30.877Z,17970.94
2022-10-03T00:06:15.369Z,17956.72
2022-10-03T00:09:06.741Z,17950.63
2022-10-03T00:11:54.481Z,17985.16
2022-10-03T00:14:36.695Z,17948.59
2022-10-03T00:17:17.108Z,17968.91
2022-10-03T00:20:04.304Z,17946.56
2022-10-03T00:22:45.314Z,17946.56
2022-10-03T00:25:34.985Z,17966.88
2022-10-03T00:28:28.323Z,17948.59
2022-10-03T00:31:12.486Z,18035.94
2022-10-03T00:34:04.663Z,17956.72
2022-10-03T00:36:49.752Z,17942.50
2022-10-03T00:39:52.218Z,17930.31
2022-10-03T00:43:04.976Z,17975.00
2022-10-03T00:45:58.854Z,17954.69
2022-10-03T00:49:24.336Z,17934.38
2022-10-03T00:52:13.673Z,17952.66
2022-10-03T00:55:01.629Z,17968.91
2022-10-03T00:58:01.244Z,17950.63
2022-10-03T01:00:32.882Z,17948.59
2022-10-03T01:03:31.074Z,17944.53
2022-10-03T01:06:35.590Z,17928.28
2022-10-03T01:09:38.179Z,17938.44
2022-10-03T01:12:32.706Z,17893.72
2022-10-03T01:15:23.598Z,17912.00
2022-10-03T01:18:14.763Z,17942.50
2022-10-03T01:20:59.667Z,17934.38
2022-10-03T01:24:02.701Z,17924.22
2022-10-03T01:27:01.475Z,17944.53
2022-10-03T01:30:04.153Z,17948.59
2022-10-03T01:32:45.069Z,17907.94
2022-10-03T01:35:31.448Z,17922.16
2022-10-03T01:38:15.524Z,17918.09
2022-10-03T01:40:56.863Z,17924.22
2022-10-03T01:43:38.943Z,17918.09
2022-10-03T01:46:21.123Z,17903.88
2022-10-03T01:49:00.578Z,17918.09
2022-10-03T01:51:35.774Z,17912.00
2022-10-03T01:54:21.693Z,17920.13
2022-10-03T01:57:02.252Z,17940.47
2022-10-03T01:59:43.803Z,17950.63
2022-10-03T02:02:26.252Z,17944.53
2022-10-03T02:05:07.356Z,17932.34
2022-10-03T02:07:50.247Z,17948.59
2022-10-03T02:10:33.474Z,17912.00
2022-10-03T02:13:13.236Z,17940.47
2022-10-03T02:15:58.612Z,17956.72
2022-10-03T02:18:45.212Z,17956.72
2022-10-03T02:21:20.631Z,17950.63
2022-10-03T02:23:54.048Z,17975.00
2022-10-03T02:27:07.403Z,17960.78
2022-10-03T02:30:10.732Z,17950.63
2022-10-03T02:33:26.108Z,17968.91
2022-10-03T02:36:51.436Z,17975.00
2022-10-03T02:40:23.916Z,17968.91
2022-10-03T02:43:26.451Z,17995.31
2022-10-03T02:46:37.791Z,18025.78
2022-10-03T02:50:10.117Z,18009.53
2022-10-03T02:53:33.221Z,17987.19
2022-10-03T02:56:48.121Z,18009.53
2022-10-03T03:00:04.070Z,17993.28
2022-10-03T03:03:30.364Z,17983.13
2022-10-03T03:06:30.926Z,17987.19
2022-10-03T03:09:54.682Z,17968.91
2022-10-03T03:13:22.343Z,17985.16
2022-10-03T03:16:36.807Z,18033.91
2022-10-03T03:19:42.333Z,18001.41
2022-10-03T03:22:35.136Z,18046.09
2022-10-03T03:25:39.861Z,18037.97
2022-10-03T03:28:33.356Z,18086.72
2022-10-03T03:31:12.286Z,17997.34
2022-10-03T03:33:56.525Z,18078.59
2022-10-03T03:36:38.927Z,18074.53
2022-10-03T03:39:35.982Z,18058.28
2022-10-03T03:42:38.317Z,18115.16
2022-10-03T03:45:41.221Z,18111.09
2022-10-03T03:49:02.019Z,18086.72
2022-10-03T03:51:43.923Z,18056.25
2022-10-03T03:54:49.142Z,18029.84
2022-10-03T03:57:52.781Z,18058.28
2022-10-03T04:00:37.495Z,18048.13
2022-10-03T04:03:27.332Z,18003.44
2022-10-03T04:06:27.764Z,18037.97
2022-10-03T04:09:19.499Z,18013.59
2022-10-03T04:12:06.525Z,18023.75
2022-10-03T04:15:29.400Z,18005.47
2022-10-03T04:18:51.472Z,18042.03
2022-10-03T04:21:49.228Z,18015.63
2022-10-03T04:24:56.952Z,18005.47
2022-10-03T04:28:10.812Z,18023.75
2022-10-03T04:30:55.811Z,18025.78
2022-10-03T04:33:46.716Z,18031.88
2022-10-03T04:36:52.639Z,18013.59
2022-10-03T04:39:36.459Z,17993.28
2022-10-03T04:42:19.345Z,18001.41
2022-10-03T04:45:09.145Z,17985.16
2022-10-03T04:47:49.123Z,17999.38
2022-10-03T04:50:36.675Z,17999.38
2022-10-03T04:53:24.691Z,18042.03
2022-10-03T04:56:15.772Z,17954.69
2022-10-03T04:58:58.451Z,17985.16
2022-10-03T05:01:35.261Z,17987.19
2022-10-03T05:04:24.155Z,17975.00
2022-10-03T05:07:07.261Z,17997.34
2022-10-03T05:09:49.781Z,17991.25
2022-10-03T05:12:32.414Z,17997.34
2022-10-03T05:15:19.423Z,17964.84
2022-10-03T05:18:01.468Z,18001.41
2022-10-03T05:20:49.375Z,17997.34
2022-10-03T05:23:33.806Z,18013.59
2022-10-03T05:26:43.520Z,17968.91
2022-10-03T05:29:16.134Z,17999.38
2022-10-03T05:32:05.021Z,18009.53
2022-10-03T05:34:49.089Z,18040.00
2022-10-03T05:37:56.606Z,17977.03
2022-10-03T05:40:29.399Z,18048.13
2022-10-03T05:43:11.620Z,18035.94
2022-10-03T05:45:55.572Z,18050.16
2022-10-03T05:48:43.454Z,18066.41
2022-10-03T05:51:46.340Z,18064.38
2022-10-03T05:54:55.150Z,18048.13
2022-10-03T05:58:07.681Z,18066.41
2022-10-03T06:01:02.080Z,18042.03
2022-10-03T06:03:57.545Z,18052.19
2022-10-03T06:06:44.101Z,18096.88
2022-10-03T06:10:04.312Z,18090.78
2022-10-03T06:12:45.159Z,18127.34
2022-10-03T06:15:40.504Z,18127.34
2022-10-03T06:18:56.179Z,18172.03
2022-10-03T06:22:01.620Z,18115.16
2022-10-03T06:25:17.218Z,18145.63
2022-10-03T06:28:40.231Z,18147.66
2022-10-03T06:32:06.287Z,18184.22
2022-10-03T06:35:30.841Z,18186.25
2022-10-03T06:38:36.294Z,18224.84
2022-10-03T06:41:55.046Z,18239.09
2022-10-03T06:45:11.153Z,18267.53
2022-10-03T06:48:02.712Z,18281.75
2022-10-03T06:50:57.006Z,18304.09
2022-10-03T06:54:03.734Z,18371.13
2022-10-03T06:57:07.623Z,18434.13
2022-10-03T07:00:15.818Z,18409.72
2022-10-03T07:03:27.512Z,18470.69
2022-10-03T07:07:07.433Z,18425.97
2022-10-03T07:10:17.128Z,18462.56
2022-10-03T07:13:24.963Z,18488.97
2022-10-03T07:16:27.509Z,18478.81
2022-10-03T07:19:54.562Z,18574.28
2022-10-03T07:23:00.029Z,18588.53
2022-10-03T07:26:15.603Z,18612.91
2022-10-03T07:29:24.528Z,18663.69
2022-10-03T07:32:37.053Z,18684.00
2022-10-03T07:36:11.158Z,18783.56
2022-10-03T07:39:26.039Z,18842.50
2022-10-03T07:42:28.655Z,18895.31
2022-10-03T07:45:30.462Z,18921.75
2022-10-03T07:48:29.704Z,18889.22
2022-10-03T07:51:38.233Z,18848.59
2022-10-03T07:54:59.737Z,18799.81
2022-10-03T07:58:13.037Z,18744.97
2022-10-03T08:01:09.423Z,18726.69
2022-10-03T08:04:30.294Z,18826.25
2022-10-03T08:07:26.004Z,18751.06
2022-10-03T08:10:21.361Z,18708.41
2022-10-03T08:13:29.048Z,18779.50
2022-10-03T08:16:25.053Z,18773.41
2022-10-03T08:19:21.491Z,18787.63
2022-10-03T08:22:06.150Z,18990.81
2022-10-03T08:25:36.528Z,19057.88
2022-10-03T08:28:32.264Z,19074.13
2022-10-03T08:31:48.132Z,19135.09
2022-10-03T08:34:50.103Z,19281.41
2022-10-03T08:38:07.755Z,19506.97
2022-10-03T08:41:30.332Z,19639.06
2022-10-03T08:44:32.006Z,19541.50
2022-10-03T08:47:33.551Z,19423.66
2022-10-03T08:50:56.133Z,19529.31
2022-10-03T08:54:03.993Z,19602.47
2022-10-03T08:57:00.377Z,19509.00
2022-10-03T09:00:19.800Z,19391.13
2022-10-03T09:04:03.286Z,19439.91
2022-10-03T09:07:21.540Z,19559.81
2022-10-03T09:10:35.616Z,19610.59
2022-10-03T09:14:12.918Z,19832.13
2022-10-03T09:17:31.558Z,19767.09
2022-10-03T09:20:54.101Z,19929.69
2022-10-03T09:24:28.822Z,19919.53
2022-10-03T09:28:03.285Z,19974.41
2022-10-03T09:30:53.794Z,19887.00
2022-10-03T09:34:37.806Z,19897.16
2022-10-03T09:37:48.810Z,19862.63
2022-10-03T09:41:20.621Z,19887.00
2022-10-03T09:44:31.469Z,19947.97
2022-10-03T09:47:50.495Z,20057.72
2022-10-03T09:51:07.250Z,19972.38
2022-10-03T09:54:18.986Z,20027.25
2022-10-03T09:57:44.294Z,19990.66
2022-10-03T10:00:25.220Z,19972.38
2022-10-03T10:03:53.316Z,19911.41
2022-10-03T10:06:41.700Z,20008.94
2022-10-03T10:10:06.605Z,20082.13
2022-10-03T10:13:14.687Z,20171.56
2022-10-03T10:16:33.705Z,20210.16
2022-10-03T10:19:27.760Z,20321.97
2022-10-03T10:22:52.695Z,20297.56
2022-10-03T10:26:02.828Z,20350.41
2022-10-03T10:29:07.313Z,20411.41
2022-10-03T10:32:25.299Z,20411.41
2022-10-03T10:35:35.272Z,20401.22
2022-10-03T10:38:33.432Z,20427.66
2022-10-03T10:42:17.052Z,20435.78
2022-10-03T10:45:40.196Z,20439.84
2022-10-03T10:49:21.518Z,20452.06
2022-10-03T10:52:47.519Z,20533.34
2022-10-03T10:56:06.506Z,20592.31
2022-10-03T10:59:47.623Z,20594.34
2022-10-03T11:03:34.235Z,20704.13
2022-10-03T11:06:53.578Z,20679.72
2022-10-03T11:09:50.761Z,20704.13
2022-10-03T11:13:14.134Z,20669.56
2022-10-03T11:16:53.756Z,20649.22
2022-10-03T11:20:21.228Z,20632.97
2022-10-03T11:23:41.054Z,20574.00
2022-10-03T11:27:13.416Z,20574.00
2022-10-03T11:30:44.528Z,20567.91
2022-10-03T11:34:20.818Z,20563.84
2022-10-03T11:37:09.434Z,20651.25
2022-10-03T11:39:51.408Z,20649.22
2022-10-03T11:42:50.721Z,20681.75
2022-10-03T11:45:32.727Z,20667.53
2022-10-03T11:48:38.478Z,20651.25
2022-10-03T11:51:12.210Z,20675.66
2022-10-03T11:53:49.634Z,20618.72
2022-10-03T11:56:39.171Z,20543.53
2022-10-03T11:59:37.405Z,20604.50
2022-10-03T12:02:17.710Z,20592.31
2022-10-03T12:04:59.417Z,20565.88
2022-10-03T12:08:07.341Z,20596.38
2022-10-03T12:10:47.787Z,20726.47
2022-10-03T12:13:24.096Z,20700.03
2022-10-03T12:15:58.163Z,20736.63
2022-10-03T12:18:50.024Z,20726.47
2022-10-03T12:21:30.117Z,20811.84
2022-10-03T12:24:26.536Z,20773.22
2022-10-03T12:27:06.056Z,20789.50
2022-10-03T12:29:45.794Z,20775.25
2022-10-03T12:32:32.953Z,20809.81
2022-10-03T12:35:25.765Z,20822.03
2022-10-03T12:38:24.421Z,20724.44
2022-10-03T12:41:07.897Z,20740.69
2022-10-03T12:43:57.070Z,20659.38
2022-10-03T12:46:41.357Z,20722.41
2022-10-03T12:49:20.026Z,20700.03
2022-10-03T12:51:58.152Z,20695.97
2022-10-03T12:54:46.466Z,20665.50
2022-10-03T12:58:04.055Z,20698.00
2022-10-03T13:00:46.110Z,20718.34
2022-10-03T13:03:49.615Z,20734.59
2022-10-03T13:07:05.795Z,20691.91
2022-10-03T13:10:03.121Z,20767.13
2022-10-03T13:12:51.095Z,20712.25
2022-10-03T13:16:16.374Z,20716.31
2022-10-03T13:19:06.483Z,20736.63
2022-10-03T13:22:03.355Z,20728.50
2022-10-03T13:24:40.834Z,20777.28
2022-10-03T13:27:32.977Z,20765.09
2022-10-03T13:30:14.945Z,20785.44
2022-10-03T13:32:47.644Z,20795.59
2022-10-03T13:35:46.777Z,20732.56
2022-10-03T13:38:58.686Z,20685.81
2022-10-03T13:41:52.596Z,20639.06
2022-10-03T13:44:26.365Z,20578.09
2022-10-03T13:47:11.247Z,20547.59
2022-10-03T13:49:53.764Z,20610.59
2022-10-03T13:52:37.644Z,20555.72
2022-10-03T13:55:26.442Z,20539.47
2022-10-03T13:58:37.659Z,20513.03
2022-10-03T14:01:42.701Z,20470.34
2022-10-03T14:04:55.140Z,20376.84
2022-10-03T14:07:43.227Z,20350.41
2022-10-03T14:10:34.743Z,20279.28
2022-10-03T14:13:21.566Z,20242.69
2022-10-03T14:16:02.184Z,20260.97
2022-10-03T14:18:49.066Z,20183.75
2022-10-03T14:22:01.752Z,20220.34
2022-10-03T14:24:48.634Z,20244.72
2022-10-03T14:27:45.394Z,20281.31
2022-10-03T14:30:18.280Z,20254.88
2022-10-03T14:33:07.032Z,20305.69
2022-10-03T14:35:42.216Z,20358.56
2022-10-03T14:38:48.498Z,20376.84
2022-10-03T14:41:25.867Z,20334.16
2022-10-03T14:43:58.125Z,20334.16
2022-10-03T14:46:31.128Z,20391.06
2022-10-03T14:49:05.517Z,20348.38
2022-10-03T14:51:40.648Z,20368.72
2022-10-03T14:54:20.717Z,20409.38
2022-10-03T14:56:52.672Z,20417.50
2022-10-03T14:59:26.477Z,20482.53
2022-10-03T15:01:59.728Z,20460.19
2022-10-03T15:04:35.003Z,20462.22
2022-10-03T15:07:04.649Z,20450.03
2022-10-03T15:09:48.922Z,20399.19
2022-10-03T15:12:23.930Z,20462.22
2022-10-03T15:15:03.968Z,20407.34
2022-10-03T15:17:37.080Z,20376.84
2022-10-03T15:20:09.795Z,20358.56
2022-10-03T15:22:42.354Z,20389.03
2022-10-03T15:25:18.208Z,20330.09
2022-10-03T15:27:54.016Z,20299.59
2022-10-03T15:30:31.436Z,20315.88
2022-10-03T15:33:15.390Z,20305.69
2022-10-03T15:35:48.451Z,20303.66
2022-10-03T15:38:24.914Z,20334.16
2022-10-03T15:41:09.124Z,20317.91
2022-10-03T15:43:52.330Z,20311.78
2022-10-03T15:46:33.635Z,20260.97
2022-10-03T15:49:07.025Z,20238.63
2022-10-03T15:51:39.602Z,20246.75
2022-10-03T15:54:15.273Z,20263.00
2022-10-03T15:56:47.540Z,20265.03
2022-10-03T15:59:24.435Z,20228.47
2022-10-03T16:01:55.772Z,20250.81
2022-10-03T16:04:29.765Z,20179.69
2022-10-03T16:07:09.296Z,20191.88
2022-10-03T16:09:52.745Z,20173.59
2022-10-03T16:12:53.169Z,20122.78
2022-10-03T16:15:34.064Z,20124.81
2022-10-03T16:18:07.383Z,20086.19
2022-10-03T16:20:41.479Z,20078.06
2022-10-03T16:23:20.790Z,20067.88
2022-10-03T16:25:55.215Z,20017.09
2022-10-03T16:28:32.179Z,19994.72
2022-10-03T16:31:06.750Z,20017.09
2022-10-03T16:33:39.699Z,19968.31
2022-10-03T16:36:17.183Z,19927.66
2022-10-03T16:38:53.534Z,19905.28
2022-10-03T16:41:26.587Z,19856.53
2022-10-03T16:43:59.733Z,19838.22
2022-10-03T16:46:38.546Z,19809.78
2022-10-03T16:49:45.938Z,19777.25
2022-10-03T16:52:16.661Z,19773.19
2022-10-03T16:54:46.995Z,19635.00
2022-10-03T16:57:21.782Z,19541.50
2022-10-03T16:59:52.319Z,19435.84
2022-10-03T17:02:28.156Z,19393.16
2022-10-03T17:05:04.701Z,19313.91
2022-10-03T17:07:41.397Z,19330.16
2022-10-03T17:10:33.435Z,19293.59
2022-10-03T17:13:12.400Z,19311.88
2022-10-03T17:15:52.077Z,19275.31
2022-10-03T17:18:28.950Z,19242.78
2022-10-03T17:21:07.542Z,19257.00
2022-10-03T17:23:41.680Z,19232.63
2022-10-03T17:26:17.866Z,19283.44
2022-10-03T17:28:55.819Z,19279.38
2022-10-03T17:31:35.498Z,19273.28
2022-10-03T17:34:15.879Z,19267.16
2022-10-03T17:37:10.829Z,19206.22
2022-10-03T17:39:55.902Z,19204.19
2022-10-03T17:42:39.331Z,19236.69
2022-10-03T17:45:30.525Z,19252.94
2022-10-03T17:48:05.989Z,19220.44
2022-10-03T17:50:47.586Z,19222.47
2022-10-03T17:53:23.394Z,19273.28
2022-10-03T17:55:57.362Z,19216.38
2022-10-03T17:58:31.440Z,19183.84
2022-10-03T18:01:11.351Z,19161.50
2022-10-03T18:03:49.707Z,19147.28
2022-10-03T18:06:45.875Z,19171.66
2022-10-03T18:09:31.041Z,19118.84
2022-10-03T18:12:17.501Z,19118.84
2022-10-03T18:15:20.572Z,19131.03
2022-10-03T18:18:08.813Z,19143.22
2022-10-03T18:20:49.478Z,19135.09
2022-10-03T18:23:53.765Z,19076.16
2022-10-03T18:26:28.850Z,19098.50
2022-10-03T18:29:16.992Z,19100.53
2022-10-03T18:31:50.393Z,19080.22
2022-10-03T18:34:24.845Z,19102.56
2022-10-03T18:36:57.096Z,19118.84
2022-10-03T18:39:31.643Z,19112.75
2022-10-03T18:42:03.029Z,19084.28
2022-10-03T18:44:36.086Z,19072.09
2022-10-03T18:47:20.151Z,19137.13
2022-10-03T18:50:04.339Z,19094.44
2022-10-03T18:52:44.502Z,19090.38
2022-10-03T18:55:22.513Z,19066.00
2022-10-03T18:58:06.653Z,19027.41
2022-10-03T19:00:48.953Z,19080.22
2022-10-03T19:03:22.156Z,19080.22
2022-10-03T19:05:55.640Z,19072.09
2022-10-03T19:08:31.141Z,19057.88
2022-10-03T19:11:12.105Z,19059.91
2022-10-03T19:13:54.164Z,19053.81
2022-10-03T19:16:49.884Z,19047.72
2022-10-03T19:19:32.735Z,19017.25
2022-10-03T19:22:06.563Z,19019.28
2022-10-03T19:24:57.401Z,19084.28
2022-10-03T19:27:41.614Z,19057.88
2022-10-03T19:30:18.548Z,19013.16
2022-10-03T19:32:58.040Z,19045.69
2022-10-03T19:35:27.250Z,19027.41
2022-10-03T19:38:01.579Z,18980.66
2022-10-03T19:40:51.313Z,19000.97
2022-10-03T19:43:45.469Z,19019.28
2022-10-03T19:46:27.977Z,18976.59
2022-10-03T19:49:22.585Z,19019.28
2022-10-03T19:51:51.082Z,18998.94
2022-10-03T19:54:34.871Z,19003.00
2022-10-03T19:57:05.672Z,19000.97
2022-10-03T19:59:47.935Z,18956.28
2022-10-03T20:02:16.142Z,19000.97
2022-10-03T20:04:53.117Z,18974.56
2022-10-03T20:07:44.406Z,18974.56
2022-10-03T20:10:35.560Z,19019.28
2022-10-03T20:13:04.394Z,18974.56
2022-10-03T20:15:44.235Z,18988.78
2022-10-03T20:18:23.719Z,19029.44
2022-10-03T20:20:55.574Z,19045.69
2022-10-03T20:23:26.656Z,19009.09
2022-10-03T20:26:01.891Z,19070.06
2022-10-03T20:28:56.523Z,19005.03
2022-10-03T20:31:29.767Z,19015.19
2022-10-03T20:34:02.462Z,19053.81
2022-10-03T20:36:34.822Z,19078.19
2022-10-03T20:39:13.757Z,19017.25
2022-10-03T20:42:00.403Z,19013.16
2022-10-03T20:44:59.011Z,18998.94
2022-10-03T20:47:53.033Z,18982.69
2022-10-03T20:50:29.603Z,19003.00
2022-10-03T20:53:01.554Z,18972.53
2022-10-03T20:55:35.600Z,18968.47
2022-10-03T20:58:15.842Z,19005.03
2022-10-03T21:00:52.217Z,19019.28
2022-10-03T21:03:34.545Z,19009.09
2022-10-03T21:06:14.992Z,18984.72
2022-10-03T21:08:43.635Z,19013.16
2022-10-03T21:11:23.262Z,18964.41
2022-10-03T21:13:57.093Z,18994.88
2022-10-03T21:16:31.371Z,18986.75
2022-10-03T21:19:04.694Z,18972.53
2022-10-03T21:21:40.939Z,18968.47
2022-10-03T21:24:19.192Z,18948.16
2022-10-03T21:26:53.740Z,18954.25
2022-10-03T21:29:31.603Z,18980.66
2022-10-03T21:32:26.273Z,18956.28
2022-10-03T21:35:18.044Z,18942.06
2022-10-03T21:37:56.653Z,18938.00
2022-10-03T21:40:50.241Z,19009.09
2022-10-03T21:43:43.098Z,18968.47
2022-10-03T21:46:21.865Z,18944.09
2022-10-03T21:49:20.471Z,18964.41
2022-10-03T21:52:41.851Z,18915.63
2022-10-03T21:55:51.087Z,18917.66
2022-10-03T21:58:51.217Z,18927.84
2022-10-03T22:01:29.173Z,18905.47
2022-10-03T22:04:06.389Z,18915.63
2022-10-03T22:06:43.885Z,18940.03
2022-10-03T22:09:16.711Z,18923.78
2022-10-03T22:11:53.529Z,18927.84
2022-10-03T22:14:42.934Z,18960.34
2022-10-03T22:17:24.711Z,18950.19
2022-10-03T22:20:11.766Z,18990.81
2022-10-03T22:22:56.100Z,18911.56
2022-10-03T22:25:47.944Z,18994.88
2022-10-03T22:28:36.677Z,18972.53
2022-10-03T22:31:20.580Z,18903.44
2022-10-03T22:34:12.226Z,18925.81
2022-10-03T22:36:42.321Z,18909.53
2022-10-03T22:39:14.172Z,18891.25
2022-10-03T22:41:48.226Z,18911.56
2022-10-03T22:44:20.695Z,18868.91
2022-10-03T22:46:55.458Z,18887.19
2022-10-03T22:49:31.671Z,18870.94
2022-10-03T22:52:04.614Z,18840.47
2022-10-03T22:54:38.248Z,18814.03
2022-10-03T22:57:11.363Z,18834.38
2022-10-03T22:59:46.783Z,18822.19
2022-10-03T23:02:17.980Z,18834.38
2022-10-03T23:04:54.439Z,18781.53
2022-10-03T23:08:08.919Z,18763.25
2022-10-03T23:10:51.330Z,18749.03
2022-10-03T23:13:30.560Z,18757.16
2022-10-03T23:16:10.298Z,18738.88
2022-10-03T23:19:04.844Z,18704.31
2022-10-03T23:21:34.000Z,18718.56
2022-10-03T23:24:11.243Z,18722.63
2022-10-03T23:27:31.551Z,18708.41
2022-10-03T23:30:50.781Z,18720.59
2022-10-03T23:33:53.242Z,18728.72
2022-10-03T23:36:25.456Z,18732.78
2022-10-03T23:38:59.830Z,18742.94
2022-10-03T23:41:58.418Z,18777.47
2022-10-03T23:44:36.344Z,18704.31
2022-10-03T23:47:11.093Z,18718.56
2022-10-03T23:49:45.833Z,18712.47
2022-10-03T23:52:22.520Z,18663.69
2022-10-03T23:54:54.318Z,18708.41
2022-10-03T23:57:28.124Z,18663.69
2022-10-03T23:59:56.227Z,18684.00
